sensor_id;sensor_type;location;lat;lon;timestamp;temperature;humidity
63017;DHT22;50274;45.640;11.756;2023-09-19T00:00:20;22.10;80.90
63017;DHT22;50274;45.640;11.756;2023-09-19T00:02:53;22.20;80.90
63017;DHT22;50274;45.640;11.756;2023-09-19T00:05:19;22.20;80.90
63017;DHT22;50274;45.640;11.756;2023-09-19T00:07:50;22.10;80.80
63017;DHT22;50274;45.640;11.756;2023-09-19T00:10:22;22.10;81.00
63017;DHT22;50274;45.640;11.756;2023-09-19T00:12:55;22.00;81.00
63017;DHT22;50274;45.640;11.756;2023-09-19T00:15:27;22.00;81.10
63017;DHT22;50274;45.640;11.756;2023-09-19T00:17:56;22.00;81.00
63017;DHT22;50274;45.640;11.756;2023-09-19T00:20:22;21.90;81.10
63017;DHT22;50274;45.640;11.756;2023-09-19T00:22:50;21.90;81.10
63017;DHT22;50274;45.640;11.756;2023-09-19T00:25:20;21.90;81.20
63017;DHT22;50274;45.640;11.756;2023-09-19T00:27:47;21.90;81.20
63017;DHT22;50274;45.640;11.756;2023-09-19T00:30:15;21.90;81.10
63017;DHT22;50274;45.640;11.756;2023-09-19T00:32:50;21.90;81.10
63017;DHT22;50274;45.640;11.756;2023-09-19T00:35:21;22.00;81.20
63017;DHT22;50274;45.640;11.756;2023-09-19T00:37:50;22.00;81.10
63017;DHT22;50274;45.640;11.756;2023-09-19T00:40:16;22.00;81.00
63017;DHT22;50274;45.640;11.756;2023-09-19T00:42:46;21.90;80.90
63017;DHT22;50274;45.640;11.756;2023-09-19T00:45:13;21.90;80.90
63017;DHT22;50274;45.640;11.756;2023-09-19T00:47:47;21.90;80.90
63017;DHT22;50274;45.640;11.756;2023-09-19T00:50:18;21.80;80.90
63017;DHT22;50274;45.640;11.756;2023-09-19T00:52:47;21.80;80.90
63017;DHT22;50274;45.640;11.756;2023-09-19T00:55:15;21.80;80.80
63017;DHT22;50274;45.640;11.756;2023-09-19T00:57:41;21.70;81.00
63017;DHT22;50274;45.640;11.756;2023-09-19T01:00:10;21.60;81.10
63017;DHT22;50274;45.640;11.756;2023-09-19T01:02:44;21.60;81.20
63017;DHT22;50274;45.640;11.756;2023-09-19T01:05:10;21.60;81.20
63017;DHT22;50274;45.640;11.756;2023-09-19T01:07:36;21.60;81.10
63017;DHT22;50274;45.640;11.756;2023-09-19T01:10:07;21.60;81.10
63017;DHT22;50274;45.640;11.756;2023-09-19T01:12:51;21.60;81.10
63017;DHT22;50274;45.640;11.756;2023-09-19T01:23:21;21.50;81.30
63017;DHT22;50274;45.640;11.756;2023-09-19T01:25:50;21.50;81.30
63017;DHT22;50274;45.640;11.756;2023-09-19T01:30:57;21.50;81.00
63017;DHT22;50274;45.640;11.756;2023-09-19T01:33:26;21.40;81.00
63017;DHT22;50274;45.640;11.756;2023-09-19T01:35:52;21.30;81.10
63017;DHT22;50274;45.640;11.756;2023-09-19T01:38:23;21.40;81.10
63017;DHT22;50274;45.640;11.756;2023-09-19T01:41:01;21.30;81.20
63017;DHT22;50274;45.640;11.756;2023-09-19T01:43:39;21.30;81.20
63017;DHT22;50274;45.640;11.756;2023-09-19T01:46:29;21.30;81.20
63017;DHT22;50274;45.640;11.756;2023-09-19T01:49:10;21.30;81.20
63017;DHT22;50274;45.640;11.756;2023-09-19T01:52:04;21.30;81.00
63017;DHT22;50274;45.640;11.756;2023-09-19T01:54:36;21.30;80.90
63017;DHT22;50274;45.640;11.756;2023-09-19T01:57:09;21.40;80.80
63017;DHT22;50274;45.640;11.756;2023-09-19T01:59:54;21.40;80.70
63017;DHT22;50274;45.640;11.756;2023-09-19T02:02:23;21.30;80.70
63017;DHT22;50274;45.640;11.756;2023-09-19T02:04:49;21.40;80.60
63017;DHT22;50274;45.640;11.756;2023-09-19T02:07:16;21.30;80.60
63017;DHT22;50274;45.640;11.756;2023-09-19T02:09:42;21.30;80.50
63017;DHT22;50274;45.640;11.756;2023-09-19T02:12:11;21.30;80.50
63017;DHT22;50274;45.640;11.756;2023-09-19T02:14:37;21.30;80.50
63017;DHT22;50274;45.640;11.756;2023-09-19T02:17:04;21.20;80.50
63017;DHT22;50274;45.640;11.756;2023-09-19T02:19:35;21.30;80.50
63017;DHT22;50274;45.640;11.756;2023-09-19T02:22:01;21.20;80.50
63017;DHT22;50274;45.640;11.756;2023-09-19T02:24:36;21.20;80.50
63017;DHT22;50274;45.640;11.756;2023-09-19T02:27:02;21.20;80.50
63017;DHT22;50274;45.640;11.756;2023-09-19T02:29:33;21.20;80.50
63017;DHT22;50274;45.640;11.756;2023-09-19T02:32:00;21.10;80.50
63017;DHT22;50274;45.640;11.756;2023-09-19T02:34:28;21.20;80.50
63017;DHT22;50274;45.640;11.756;2023-09-19T02:36:54;21.10;80.50
63017;DHT22;50274;45.640;11.756;2023-09-19T02:39:22;21.20;80.40
63017;DHT22;50274;45.640;11.756;2023-09-19T02:41:49;21.10;80.30
63017;DHT22;50274;45.640;11.756;2023-09-19T02:44:15;21.10;80.20
63017;DHT22;50274;45.640;11.756;2023-09-19T02:46:41;21.10;80.20
63017;DHT22;50274;45.640;11.756;2023-09-19T02:49:07;21.00;80.30
63017;DHT22;50274;45.640;11.756;2023-09-19T02:51:33;21.00;80.30
63017;DHT22;50274;45.640;11.756;2023-09-19T02:54:00;20.90;80.40
63017;DHT22;50274;45.640;11.756;2023-09-19T02:56:26;20.90;80.50
63017;DHT22;50274;45.640;11.756;2023-09-19T02:58:52;20.80;80.70
63017;DHT22;50274;45.640;11.756;2023-09-19T03:01:18;20.80;80.80
63017;DHT22;50274;45.640;11.756;2023-09-19T03:03:44;20.80;80.80
63017;DHT22;50274;45.640;11.756;2023-09-19T03:06:11;20.70;80.90
63017;DHT22;50274;45.640;11.756;2023-09-19T03:08:38;20.70;81.00
63017;DHT22;50274;45.640;11.756;2023-09-19T03:11:06;20.70;81.00
63017;DHT22;50274;45.640;11.756;2023-09-19T03:13:32;20.70;81.00
63017;DHT22;50274;45.640;11.756;2023-09-19T03:15:58;20.70;81.00
63017;DHT22;50274;45.640;11.756;2023-09-19T03:18:24;20.60;81.10
63017;DHT22;50274;45.640;11.756;2023-09-19T03:20:58;20.70;81.10
63017;DHT22;50274;45.640;11.756;2023-09-19T03:23:27;20.70;81.10
63017;DHT22;50274;45.640;11.756;2023-09-19T03:25:54;20.70;81.00
63017;DHT22;50274;45.640;11.756;2023-09-19T03:28:21;20.70;81.00
63017;DHT22;50274;45.640;11.756;2023-09-19T03:31:04;20.70;81.00
63017;DHT22;50274;45.640;11.756;2023-09-19T03:33:30;20.60;81.00
63017;DHT22;50274;45.640;11.756;2023-09-19T03:36:00;20.60;81.00
63017;DHT22;50274;45.640;11.756;2023-09-19T03:38:27;20.70;80.90
63017;DHT22;50274;45.640;11.756;2023-09-19T03:40:54;20.70;80.90
63017;DHT22;50274;45.640;11.756;2023-09-19T03:43:20;20.70;80.90
63017;DHT22;50274;45.640;11.756;2023-09-19T03:45:46;20.70;80.80
63017;DHT22;50274;45.640;11.756;2023-09-19T03:48:16;20.70;80.80
63017;DHT22;50274;45.640;11.756;2023-09-19T03:50:42;20.70;80.70
63017;DHT22;50274;45.640;11.756;2023-09-19T03:53:09;20.70;80.70
63017;DHT22;50274;45.640;11.756;2023-09-19T03:55:35;20.70;80.60
63017;DHT22;50274;45.640;11.756;2023-09-19T03:58:02;20.60;80.60
63017;DHT22;50274;45.640;11.756;2023-09-19T04:00:27;20.60;80.60
63017;DHT22;50274;45.640;11.756;2023-09-19T04:02:55;20.60;80.50
63017;DHT22;50274;45.640;11.756;2023-09-19T04:05:22;20.60;80.50
63017;DHT22;50274;45.640;11.756;2023-09-19T04:07:49;20.60;80.40
63017;DHT22;50274;45.640;11.756;2023-09-19T04:10:15;20.60;80.40
63017;DHT22;50274;45.640;11.756;2023-09-19T04:12:53;20.60;80.40
63017;DHT22;50274;45.640;11.756;2023-09-19T04:15:19;20.60;80.30
63017;DHT22;50274;45.640;11.756;2023-09-19T04:17:49;20.60;80.30
63017;DHT22;50274;45.640;11.756;2023-09-19T04:20:15;20.60;80.30
63017;DHT22;50274;45.640;11.756;2023-09-19T04:22:41;20.60;80.20
63017;DHT22;50274;45.640;11.756;2023-09-19T04:25:07;20.60;80.10
63017;DHT22;50274;45.640;11.756;2023-09-19T04:27:33;20.60;80.10
63017;DHT22;50274;45.640;11.756;2023-09-19T04:30:00;20.60;80.10
63017;DHT22;50274;45.640;11.756;2023-09-19T04:32:30;20.50;80.10
63017;DHT22;50274;45.640;11.756;2023-09-19T04:34:57;20.50;80.00
63017;DHT22;50274;45.640;11.756;2023-09-19T04:37:26;20.40;79.90
63017;DHT22;50274;45.640;11.756;2023-09-19T04:39:51;20.40;79.90
63017;DHT22;50274;45.640;11.756;2023-09-19T04:42:17;20.40;80.00
63017;DHT22;50274;45.640;11.756;2023-09-19T04:44:44;20.40;80.10
63017;DHT22;50274;45.640;11.756;2023-09-19T04:47:10;20.30;80.10
63017;DHT22;50274;45.640;11.756;2023-09-19T04:49:37;20.30;80.10
63017;DHT22;50274;45.640;11.756;2023-09-19T04:52:05;20.30;80.10
63017;DHT22;50274;45.640;11.756;2023-09-19T04:54:32;20.30;80.00
63017;DHT22;50274;45.640;11.756;2023-09-19T04:56:59;20.30;80.00
63017;DHT22;50274;45.640;11.756;2023-09-19T04:59:28;20.30;79.90
63017;DHT22;50274;45.640;11.756;2023-09-19T05:01:54;20.20;80.00
63017;DHT22;50274;45.640;11.756;2023-09-19T05:04:20;20.20;80.00
63017;DHT22;50274;45.640;11.756;2023-09-19T05:06:45;20.20;80.10
63017;DHT22;50274;45.640;11.756;2023-09-19T05:09:11;20.20;80.10
63017;DHT22;50274;45.640;11.756;2023-09-19T05:11:37;20.20;80.00
63017;DHT22;50274;45.640;11.756;2023-09-19T05:14:04;20.20;80.00
63017;DHT22;50274;45.640;11.756;2023-09-19T05:16:30;20.20;80.00
63017;DHT22;50274;45.640;11.756;2023-09-19T05:18:57;20.10;80.00
63017;DHT22;50274;45.640;11.756;2023-09-19T05:21:25;20.20;80.00
63017;DHT22;50274;45.640;11.756;2023-09-19T05:23:54;20.20;80.00
63017;DHT22;50274;45.640;11.756;2023-09-19T05:26:20;20.20;79.90
63017;DHT22;50274;45.640;11.756;2023-09-19T05:28:46;20.20;79.90
63017;DHT22;50274;45.640;11.756;2023-09-19T05:31:13;20.20;79.80
63017;DHT22;50274;45.640;11.756;2023-09-19T05:33:41;20.20;79.80
63017;DHT22;50274;45.640;11.756;2023-09-19T05:36:07;20.20;79.90
63017;DHT22;50274;45.640;11.756;2023-09-19T05:38:36;20.20;79.80
63017;DHT22;50274;45.640;11.756;2023-09-19T05:41:02;20.30;80.00
63017;DHT22;50274;45.640;11.756;2023-09-19T05:43:28;20.30;80.00
63017;DHT22;50274;45.640;11.756;2023-09-19T05:45:54;20.30;80.00
63017;DHT22;50274;45.640;11.756;2023-09-19T05:48:22;20.30;80.00
63017;DHT22;50274;45.640;11.756;2023-09-19T05:50:48;20.40;80.10
63017;DHT22;50274;45.640;11.756;2023-09-19T05:53:15;20.30;80.10
63017;DHT22;50274;45.640;11.756;2023-09-19T05:55:41;20.40;80.20
63017;DHT22;50274;45.640;11.756;2023-09-19T05:58:07;20.40;80.30
63017;DHT22;50274;45.640;11.756;2023-09-19T06:00:34;20.50;80.40
63017;DHT22;50274;45.640;11.756;2023-09-19T06:03:00;20.50;80.30
63017;DHT22;50274;45.640;11.756;2023-09-19T06:05:27;20.60;80.40
63017;DHT22;50274;45.640;11.756;2023-09-19T06:07:54;20.60;80.40
63017;DHT22;50274;45.640;11.756;2023-09-19T06:10:20;20.70;80.40
63017;DHT22;50274;45.640;11.756;2023-09-19T06:12:48;20.70;80.50
63017;DHT22;50274;45.640;11.756;2023-09-19T06:15:15;20.80;80.50
63017;DHT22;50274;45.640;11.756;2023-09-19T06:17:48;20.90;80.50
63017;DHT22;50274;45.640;11.756;2023-09-19T06:20:14;20.90;80.50
63017;DHT22;50274;45.640;11.756;2023-09-19T06:22:41;21.00;80.50
63017;DHT22;50274;45.640;11.756;2023-09-19T06:25:11;21.10;80.40
63017;DHT22;50274;45.640;11.756;2023-09-19T06:27:40;21.10;80.40
63017;DHT22;50274;45.640;11.756;2023-09-19T06:30:10;21.20;80.40
63017;DHT22;50274;45.640;11.756;2023-09-19T06:32:42;21.30;80.30
63017;DHT22;50274;45.640;11.756;2023-09-19T06:35:13;21.30;80.30
63017;DHT22;50274;45.640;11.756;2023-09-19T06:37:39;21.50;80.30
63017;DHT22;50274;45.640;11.756;2023-09-19T06:40:09;21.60;80.30
63017;DHT22;50274;45.640;11.756;2023-09-19T06:42:54;21.60;80.20
63017;DHT22;50274;45.640;11.756;2023-09-19T06:45:57;21.70;80.20
63017;DHT22;50274;45.640;11.756;2023-09-19T06:48:31;21.70;80.10
63017;DHT22;50274;45.640;11.756;2023-09-19T06:50:59;21.80;80.00
63017;DHT22;50274;45.640;11.756;2023-09-19T06:53:31;21.90;80.00
63017;DHT22;50274;45.640;11.756;2023-09-19T06:55:58;22.00;79.90
63017;DHT22;50274;45.640;11.756;2023-09-19T06:58:23;22.10;79.90
63017;DHT22;50274;45.640;11.756;2023-09-19T07:00:49;22.10;79.90
63017;DHT22;50274;45.640;11.756;2023-09-19T07:03:19;22.20;79.90
63017;DHT22;50274;45.640;11.756;2023-09-19T07:05:48;22.30;79.70
63017;DHT22;50274;45.640;11.756;2023-09-19T07:08:14;22.30;79.60
63017;DHT22;50274;45.640;11.756;2023-09-19T07:10:42;22.40;79.60
63017;DHT22;50274;45.640;11.756;2023-09-19T07:13:14;22.50;79.50
63017;DHT22;50274;45.640;11.756;2023-09-19T07:15:43;22.60;79.40
63017;DHT22;50274;45.640;11.756;2023-09-19T07:18:22;22.70;79.40
63017;DHT22;50274;45.640;11.756;2023-09-19T07:20:50;22.80;79.10
63017;DHT22;50274;45.640;11.756;2023-09-19T07:23:19;22.90;78.60
63017;DHT22;50274;45.640;11.756;2023-09-19T07:25:51;22.90;78.40
63017;DHT22;50274;45.640;11.756;2023-09-19T07:28:17;23.10;78.00
63017;DHT22;50274;45.640;11.756;2023-09-19T07:30:44;23.10;78.00
63017;DHT22;50274;45.640;11.756;2023-09-19T07:33:12;23.20;77.90
63017;DHT22;50274;45.640;11.756;2023-09-19T07:35:39;23.30;77.40
63017;DHT22;50274;45.640;11.756;2023-09-19T07:38:08;23.40;77.20
63017;DHT22;50274;45.640;11.756;2023-09-19T07:40:36;23.50;77.10
63017;DHT22;50274;45.640;11.756;2023-09-19T07:43:02;23.60;77.00
63017;DHT22;50274;45.640;11.756;2023-09-19T07:45:30;23.60;76.60
63017;DHT22;50274;45.640;11.756;2023-09-19T07:47:57;23.70;76.40
63017;DHT22;50274;45.640;11.756;2023-09-19T07:50:23;23.80;76.20
63017;DHT22;50274;45.640;11.756;2023-09-19T07:52:50;23.90;76.20
63017;DHT22;50274;45.640;11.756;2023-09-19T07:55:20;24.00;76.00
63017;DHT22;50274;45.640;11.756;2023-09-19T07:57:49;24.00;75.40
63017;DHT22;50274;45.640;11.756;2023-09-19T08:00:15;24.10;75.20
63017;DHT22;50274;45.640;11.756;2023-09-19T08:02:42;24.20;75.20
63017;DHT22;50274;45.640;11.756;2023-09-19T08:05:09;24.20;75.00
63017;DHT22;50274;45.640;11.756;2023-09-19T08:07:39;24.30;74.70
63017;DHT22;50274;45.640;11.756;2023-09-19T08:10:06;24.40;74.70
63017;DHT22;50274;45.640;11.756;2023-09-19T08:12:39;24.50;74.90
63017;DHT22;50274;45.640;11.756;2023-09-19T08:15:19;24.60;74.60
63017;DHT22;50274;45.640;11.756;2023-09-19T08:17:46;24.60;74.30
63017;DHT22;50274;45.640;11.756;2023-09-19T08:20:12;24.70;74.10
63017;DHT22;50274;45.640;11.756;2023-09-19T08:22:47;24.80;73.90
63017;DHT22;50274;45.640;11.756;2023-09-19T08:25:15;24.90;73.70
63017;DHT22;50274;45.640;11.756;2023-09-19T08:27:43;25.00;73.50
63017;DHT22;50274;45.640;11.756;2023-09-19T08:30:14;25.10;73.70
63017;DHT22;50274;45.640;11.756;2023-09-19T08:32:40;25.10;73.60
63017;DHT22;50274;45.640;11.756;2023-09-19T08:35:08;25.20;73.50
63017;DHT22;50274;45.640;11.756;2023-09-19T08:37:35;25.30;72.80
63017;DHT22;50274;45.640;11.756;2023-09-19T08:40:01;25.30;72.70
63017;DHT22;50274;45.640;11.756;2023-09-19T08:42:27;25.40;72.50
63017;DHT22;50274;45.640;11.756;2023-09-19T08:44:54;25.40;72.40
63017;DHT22;50274;45.640;11.756;2023-09-19T08:47:34;25.50;72.30
63017;DHT22;50274;45.640;11.756;2023-09-19T08:50:11;25.60;71.90
63017;DHT22;50274;45.640;11.756;2023-09-19T08:52:43;25.60;71.40
63017;DHT22;50274;45.640;11.756;2023-09-19T08:55:12;25.70;71.70
63017;DHT22;50274;45.640;11.756;2023-09-19T08:57:38;25.80;71.20
63017;DHT22;50274;45.640;11.756;2023-09-19T09:00:08;25.90;71.20
63017;DHT22;50274;45.640;11.756;2023-09-19T09:02:40;26.00;71.10
63017;DHT22;50274;45.640;11.756;2023-09-19T09:05:12;26.10;70.70
63017;DHT22;50274;45.640;11.756;2023-09-19T09:07:40;26.10;69.90
63017;DHT22;50274;45.640;11.756;2023-09-19T09:10:07;26.20;69.60
63017;DHT22;50274;45.640;11.756;2023-09-19T09:12:35;26.30;69.40
63017;DHT22;50274;45.640;11.756;2023-09-19T09:15:02;26.50;68.80
63017;DHT22;50274;45.640;11.756;2023-09-19T09:17:29;26.60;68.70
63017;DHT22;50274;45.640;11.756;2023-09-19T09:19:56;26.60;68.60
63017;DHT22;50274;45.640;11.756;2023-09-19T09:22:23;26.70;68.00
63017;DHT22;50274;45.640;11.756;2023-09-19T09:24:59;26.70;67.80
63017;DHT22;50274;45.640;11.756;2023-09-19T09:27:29;26.80;67.70
63017;DHT22;50274;45.640;11.756;2023-09-19T09:29:56;26.90;66.60
63017;DHT22;50274;45.640;11.756;2023-09-19T09:32:27;27.00;66.60
63017;DHT22;50274;45.640;11.756;2023-09-19T09:34:59;27.10;66.20
63017;DHT22;50274;45.640;11.756;2023-09-19T09:37:26;27.20;65.80
63017;DHT22;50274;45.640;11.756;2023-09-19T09:39:58;27.30;66.00
63017;DHT22;50274;45.640;11.756;2023-09-19T09:42:32;27.40;65.20
63017;DHT22;50274;45.640;11.756;2023-09-19T09:47:44;27.60;63.40
63017;DHT22;50274;45.640;11.756;2023-09-19T09:51:08;27.70;62.30
63017;DHT22;50274;45.640;11.756;2023-09-19T09:53:30;27.70;62.90
63017;DHT22;50274;45.640;11.756;2023-09-19T09:56:08;27.80;62.40
63017;DHT22;50274;45.640;11.756;2023-09-19T09:58:49;27.90;62.10
63017;DHT22;50274;45.640;11.756;2023-09-19T10:01:16;28.00;60.80
63017;DHT22;50274;45.640;11.756;2023-09-19T10:03:43;28.10;61.00
63017;DHT22;50274;45.640;11.756;2023-09-19T10:06:12;28.20;60.80
63017;DHT22;50274;45.640;11.756;2023-09-19T10:09:05;28.30;60.50
63017;DHT22;50274;45.640;11.756;2023-09-19T10:11:44;28.60;60.40
63017;DHT22;50274;45.640;11.756;2023-09-19T10:14:12;28.70;58.60
63017;DHT22;50274;45.640;11.756;2023-09-19T10:16:46;28.70;58.80
63017;DHT22;50274;45.640;11.756;2023-09-19T10:19:36;28.80;59.20
63017;DHT22;50274;45.640;11.756;2023-09-19T10:22:04;29.00;59.20
63017;DHT22;50274;45.640;11.756;2023-09-19T10:24:34;29.10;58.50
63017;DHT22;50274;45.640;11.756;2023-09-19T10:27:02;29.10;56.80
63017;DHT22;50274;45.640;11.756;2023-09-19T10:29:32;29.20;57.00
63017;DHT22;50274;45.640;11.756;2023-09-19T10:32:03;29.30;56.40
63017;DHT22;50274;45.640;11.756;2023-09-19T10:34:37;29.30;56.50
63017;DHT22;50274;45.640;11.756;2023-09-19T10:37:07;29.50;56.70
63017;DHT22;50274;45.640;11.756;2023-09-19T10:39:39;29.70;56.50
63017;DHT22;50274;45.640;11.756;2023-09-19T10:42:07;29.80;55.80
63017;DHT22;50274;45.640;11.756;2023-09-19T10:44:38;30.00;55.60
63017;DHT22;50274;45.640;11.756;2023-09-19T10:47:09;30.10;54.70
63017;DHT22;50274;45.640;11.756;2023-09-19T10:49:45;30.10;54.50
63017;DHT22;50274;45.640;11.756;2023-09-19T10:52:19;29.80;55.00
63017;DHT22;50274;45.640;11.756;2023-09-19T10:55:01;29.50;54.70
63017;DHT22;50274;45.640;11.756;2023-09-19T10:57:43;29.10;55.90
63017;DHT22;50274;45.640;11.756;2023-09-19T11:00:10;28.80;56.20
63017;DHT22;50274;45.640;11.756;2023-09-19T11:03:20;28.60;57.30
63017;DHT22;50274;45.640;11.756;2023-09-19T11:06:15;28.40;58.10
63017;DHT22;50274;45.640;11.756;2023-09-19T11:09:07;28.20;58.90
63017;DHT22;50274;45.640;11.756;2023-09-19T11:12:09;28.00;59.80
63017;DHT22;50274;45.640;11.756;2023-09-19T11:14:43;27.80;60.30
63017;DHT22;50274;45.640;11.756;2023-09-19T11:30:45;28.40;59.00
63017;DHT22;50274;45.640;11.756;2023-09-19T11:33:27;28.60;59.10
63017;DHT22;50274;45.640;11.756;2023-09-19T11:39:01;29.00;58.10
63017;DHT22;50274;45.640;11.756;2023-09-19T11:41:37;28.90;58.20
63017;DHT22;50274;45.640;11.756;2023-09-19T11:46:30;28.60;57.70
63017;DHT22;50274;45.640;11.756;2023-09-19T11:49:06;28.60;58.30
63017;DHT22;50274;45.640;11.756;2023-09-19T11:51:43;28.80;58.20
63017;DHT22;50274;45.640;11.756;2023-09-19T11:54:13;29.10;57.40
63017;DHT22;50274;45.640;11.756;2023-09-19T11:56:54;29.50;56.80
63017;DHT22;50274;45.640;11.756;2023-09-19T11:59:25;29.80;55.70
63017;DHT22;50274;45.640;11.756;2023-09-19T12:02:05;30.00;54.80
63017;DHT22;50274;45.640;11.756;2023-09-19T12:07:07;29.70;54.70
63017;DHT22;50274;45.640;11.756;2023-09-19T12:09:40;29.50;54.70
63017;DHT22;50274;45.640;11.756;2023-09-19T12:12:11;29.40;54.50
63017;DHT22;50274;45.640;11.756;2023-09-19T12:14:48;29.30;54.70
63017;DHT22;50274;45.640;11.756;2023-09-19T12:17:14;29.10;54.70
63017;DHT22;50274;45.640;11.756;2023-09-19T12:19:52;29.10;55.20
63017;DHT22;50274;45.640;11.756;2023-09-19T12:22:19;29.10;54.90
63017;DHT22;50274;45.640;11.756;2023-09-19T12:24:49;29.40;55.00
63017;DHT22;50274;45.640;11.756;2023-09-19T12:27:17;29.60;54.50
63017;DHT22;50274;45.640;11.756;2023-09-19T12:29:47;29.70;54.10
63017;DHT22;50274;45.640;11.756;2023-09-19T12:32:36;29.60;53.90
63017;DHT22;50274;45.640;11.756;2023-09-19T12:35:03;29.40;54.10
63017;DHT22;50274;45.640;11.756;2023-09-19T12:37:33;29.20;54.50
63017;DHT22;50274;45.640;11.756;2023-09-19T12:40:08;29.10;54.60
63017;DHT22;50274;45.640;11.756;2023-09-19T12:42:56;28.80;54.80
63017;DHT22;50274;45.640;11.756;2023-09-19T12:45:24;28.70;55.50
63017;DHT22;50274;45.640;11.756;2023-09-19T12:48:20;28.50;55.90
63017;DHT22;50274;45.640;11.756;2023-09-19T12:51:06;28.40;56.20
63017;DHT22;50274;45.640;11.756;2023-09-19T12:53:46;28.20;56.80
63017;DHT22;50274;45.640;11.756;2023-09-19T12:56:17;28.10;57.20
63017;DHT22;50274;45.640;11.756;2023-09-19T12:58:57;28.10;57.40
63017;DHT22;50274;45.640;11.756;2023-09-19T13:01:31;28.10;57.10
63017;DHT22;50274;45.640;11.756;2023-09-19T13:04:14;28.00;57.00
63017;DHT22;50274;45.640;11.756;2023-09-19T13:06:50;28.00;57.40
63017;DHT22;50274;45.640;11.756;2023-09-19T13:09:21;27.90;57.30
63017;DHT22;50274;45.640;11.756;2023-09-19T13:11:54;27.90;57.50
63017;DHT22;50274;45.640;11.756;2023-09-19T13:14:26;27.90;57.50
63017;DHT22;50274;45.640;11.756;2023-09-19T13:17:07;27.90;57.30
63017;DHT22;50274;45.640;11.756;2023-09-19T13:19:44;27.90;57.40
63017;DHT22;50274;45.640;11.756;2023-09-19T13:22:41;27.90;57.70
63017;DHT22;50274;45.640;11.756;2023-09-19T13:25:16;27.90;57.00
63017;DHT22;50274;45.640;11.756;2023-09-19T13:27:51;27.90;57.00
63017;DHT22;50274;45.640;11.756;2023-09-19T13:30:18;28.00;57.30
63017;DHT22;50274;45.640;11.756;2023-09-19T13:32:45;28.10;56.70
63017;DHT22;50274;45.640;11.756;2023-09-19T13:35:14;28.10;56.80
63017;DHT22;50274;45.640;11.756;2023-09-19T13:37:41;28.10;57.00
63017;DHT22;50274;45.640;11.756;2023-09-19T13:40:12;28.20;57.00
63017;DHT22;50274;45.640;11.756;2023-09-19T13:42:39;28.50;56.50
63017;DHT22;50274;45.640;11.756;2023-09-19T13:45:06;28.90;56.10
63017;DHT22;50274;45.640;11.756;2023-09-19T13:47:33;29.20;55.30
63017;DHT22;50274;45.640;11.756;2023-09-19T13:50:02;29.30;54.60
63017;DHT22;50274;45.640;11.756;2023-09-19T13:52:31;29.30;54.60
63017;DHT22;50274;45.640;11.756;2023-09-19T13:54:57;29.30;54.30
63017;DHT22;50274;45.640;11.756;2023-09-19T13:57:24;29.60;53.80
63017;DHT22;50274;45.640;11.756;2023-09-19T13:59:54;29.80;53.30
63017;DHT22;50274;45.640;11.756;2023-09-19T14:02:20;30.10;52.70
63017;DHT22;50274;45.640;11.756;2023-09-19T14:04:49;30.40;51.90
63017;DHT22;50274;45.640;11.756;2023-09-19T14:07:15;30.70;50.60
63017;DHT22;50274;45.640;11.756;2023-09-19T14:09:43;30.90;49.90
63017;DHT22;50274;45.640;11.756;2023-09-19T14:12:09;31.10;49.40
63017;DHT22;50274;45.640;11.756;2023-09-19T14:14:35;31.20;49.30
63017;DHT22;50274;45.640;11.756;2023-09-19T14:17:00;31.30;49.10
63017;DHT22;50274;45.640;11.756;2023-09-19T14:19:27;31.50;48.80
63017;DHT22;50274;45.640;11.756;2023-09-19T14:21:53;31.60;48.60
63017;DHT22;50274;45.640;11.756;2023-09-19T14:24:22;31.80;48.60
63017;DHT22;50274;45.640;11.756;2023-09-19T14:26:48;31.90;48.00
63017;DHT22;50274;45.640;11.756;2023-09-19T14:29:15;32.00;48.10
63017;DHT22;50274;45.640;11.756;2023-09-19T14:31:41;32.00;48.00
63017;DHT22;50274;45.640;11.756;2023-09-19T14:34:08;32.10;47.90
63017;DHT22;50274;45.640;11.756;2023-09-19T14:36:36;32.00;47.30
63017;DHT22;50274;45.640;11.756;2023-09-19T14:39:02;31.90;47.50
63017;DHT22;50274;45.640;11.756;2023-09-19T14:41:28;31.90;47.20
63017;DHT22;50274;45.640;11.756;2023-09-19T14:43:56;31.90;47.10
63017;DHT22;50274;45.640;11.756;2023-09-19T14:46:22;31.90;47.20
63017;DHT22;50274;45.640;11.756;2023-09-19T14:48:51;31.90;47.60
63017;DHT22;50274;45.640;11.756;2023-09-19T14:51:17;31.90;47.40
63017;DHT22;50274;45.640;11.756;2023-09-19T14:53:44;31.90;47.60
63017;DHT22;50274;45.640;11.756;2023-09-19T14:56:11;31.90;47.60
63017;DHT22;50274;45.640;11.756;2023-09-19T14:58:38;31.70;47.00
63017;DHT22;50274;45.640;11.756;2023-09-19T15:01:06;31.50;46.90
63017;DHT22;50274;45.640;11.756;2023-09-19T15:03:35;31.40;47.40
63017;DHT22;50274;45.640;11.756;2023-09-19T15:06:02;31.40;47.80
63017;DHT22;50274;45.640;11.756;2023-09-19T15:08:31;31.30;47.90
63017;DHT22;50274;45.640;11.756;2023-09-19T15:10:57;31.30;47.80
63017;DHT22;50274;45.640;11.756;2023-09-19T15:13:24;31.20;48.10
63017;DHT22;50274;45.640;11.756;2023-09-19T15:16:05;31.10;48.40
63017;DHT22;50274;45.640;11.756;2023-09-19T15:18:34;31.10;48.70
63017;DHT22;50274;45.640;11.756;2023-09-19T15:21:04;31.10;49.00
63017;DHT22;50274;45.640;11.756;2023-09-19T15:23:33;31.00;49.00
63017;DHT22;50274;45.640;11.756;2023-09-19T15:26:07;30.80;48.70
63017;DHT22;50274;45.640;11.756;2023-09-19T15:28:34;30.70;48.70
63017;DHT22;50274;45.640;11.756;2023-09-19T15:31:07;30.50;48.80
63017;DHT22;50274;45.640;11.756;2023-09-19T15:33:34;30.30;48.70
63017;DHT22;50274;45.640;11.756;2023-09-19T15:36:06;30.10;49.40
63017;DHT22;50274;45.640;11.756;2023-09-19T15:38:56;29.60;49.80
63017;DHT22;50274;45.640;11.756;2023-09-19T15:41:22;29.20;50.00
63017;DHT22;50274;45.640;11.756;2023-09-19T15:43:48;28.90;49.60
63017;DHT22;50274;45.640;11.756;2023-09-19T15:46:14;28.50;49.90
63017;DHT22;50274;45.640;11.756;2023-09-19T15:48:41;28.30;50.60
63017;DHT22;50274;45.640;11.756;2023-09-19T15:51:07;28.00;51.40
63017;DHT22;50274;45.640;11.756;2023-09-19T15:53:49;27.80;52.20
63017;DHT22;50274;45.640;11.756;2023-09-19T15:56:16;27.60;53.70
63017;DHT22;50274;45.640;11.756;2023-09-19T15:58:45;27.50;54.30
63017;DHT22;50274;45.640;11.756;2023-09-19T16:01:12;27.40;54.90
63017;DHT22;50274;45.640;11.756;2023-09-19T16:03:40;27.30;55.60
63017;DHT22;50274;45.640;11.756;2023-09-19T16:06:13;27.20;56.00
63017;DHT22;50274;45.640;11.756;2023-09-19T16:08:49;27.10;56.80